Masbate, Philippines

5:54 AM PHT on September 19, 2014 (GMT +0800)
Mactan-Cebu International | Change Station
CLOSE
Current Station
Airport
Location: Masbate,
Elevation: 30 ft
Nearby Weather Stations

Elev 30 ft 10.31 °N, 123.98 °E | Updated 54 minutes ago

Mostly Cloudy
Mostly Cloudy
81 °F
Feels Like 85 °F
N
12
Wind Variable Wind from South

Today
High -- | Low -- °F
--% Chance of Precip.
Yesterday
High -- | Low -- °F
Precip. -- in
5:33 AM 5:42 PM
Waning Crescent, 24% visible
Pressure 29.77 in
Visibility 6.2 miles
Clouds Scattered Clouds 2000 ft
Mostly Cloudy 30000 ft
Heat Index 85 °F
Dew Point 73 °F
Humidity 79%
Rainfall 0.00 in
Snow Depth Not available.
UV 0 out of 12
Pollen Not available.
Air Quality Not available.
Flu Activity Not available.
METAR RPVM 182100Z 19010KT 9999 SCT020 BKN300 27/23 Q1008 RMK A2977

More Conditions Fewer Conditions

Pressure 29.77 in
Visibility 6.2 miles
Clouds Scattered Clouds 2000 ft
Mostly Cloudy 30000 ft
Heat Index 85 °F
Dew Point 73 °F
Humidity 79%
Rainfall 0.00 in
Snow Depth Not available.
UV 0 out of 12
Pollen Not available.
Air Quality Not available.
Flu Activity Not available.
METAR RPVM 182100Z 19010KT 9999 SCT020 BKN300 27/23 Q1008 RMK A2977

More Conditions Fewer Conditions

10-Day Weather Forecast

Almanac

Astronomy

Sep. 19, 2014 Rise Set
Actual Time 5:33 AM PHT 5:42 PM PHT
Civil Twilight 5:12 AM PHT 6:03 PM PHT
Nautical Twilight 4:48 AM PHT 6:27 PM PHT
Astronomical Twilight 4:23 AM PHT 6:52 PM PHT
Moon 1:26 AM PHT (9/19) 2:12 PM PHT (9/19)
Length of Visible Light 12h 50m
Length of Day
12h 08m
Tomorrow will be 0m 34s shorter.
Waning Crescent, 24% of the Moon is Illuminated
Sep 18
Waning Crescent
Sep 24
New
Oct 1
First Quarter
Oct 8
Full
Oct 15
Last Quarter

Yesterday's Extremes

Country Highs Country Lows

Community

WunderPhotos

Upload Photos

1,754,452 photos uploaded!

WunderBlogs® & News

Nearby

Snow Depth

Not available.

Earthquake Activity

City Distance Mag. Time & Date
No recent earthquake activity has been reported nearby.
Minimum magnitude displayed is 2.5.

Coastal Water Temperatures

Place Temperature
No Stations Reporting

Nearby Weather Stations